createdAt,value
2022-08-09T00:00:00.441Z,98989.38
2022-08-09T00:02:29.055Z,98986.44
2022-08-09T00:05:03.190Z,98990.16
2022-08-09T00:07:44.897Z,98988.19
2022-08-09T00:10:17.922Z,98977.78
2022-08-09T00:12:45.599Z,98974.75
2022-08-09T00:15:14.659Z,98984.53
2022-08-09T00:18:06.309Z,98987.59
2022-08-09T00:20:28.091Z,98980.84
2022-08-09T00:22:58.293Z,98981.84
2022-08-09T00:25:34.439Z,98987.69
2022-08-09T00:28:04.114Z,98994.78
2022-08-09T00:30:31.207Z,98994.19
2022-08-09T00:32:57.970Z,98975.00
2022-08-09T00:35:24.667Z,98988.66
2022-08-09T00:37:51.640Z,98981.50
2022-08-09T00:40:19.731Z,98979.91
2022-08-09T00:44:19.480Z,98971.97
2022-08-09T00:45:34.818Z,98983.56
2022-08-09T00:48:03.982Z,98985.50
2022-08-09T00:50:32.369Z,98977.69
2022-08-09T00:52:59.967Z,98965.56
2022-08-09T00:56:04.622Z,98967.41
2022-08-09T00:58:25.533Z,98977.44
2022-08-09T01:00:59.045Z,98967.44
2022-08-09T01:03:33.364Z,98982.44
2022-08-09T01:06:53.560Z,98981.59
2022-08-09T01:09:57.369Z,98990.59
2022-08-09T01:12:41.641Z,98985.72
2022-08-09T01:15:16.935Z,98976.34
2022-08-09T01:17:50.153Z,98987.19
2022-08-09T01:20:36.267Z,98980.22
2022-08-09T01:24:02.558Z,98975.22
2022-08-09T01:26:40.951Z,98975.34
2022-08-09T01:29:10.444Z,98974.34
2022-08-09T01:32:31.214Z,98970.69
2022-08-09T01:34:34.578Z,98973.03
2022-08-09T01:37:08.728Z,98957.50
2022-08-09T01:39:38.218Z,98965.56
2022-08-09T01:42:11.244Z,98959.81
2022-08-09T01:44:41.287Z,98957.38
2022-08-09T01:47:11.738Z,98961.06
2022-08-09T01:49:39.865Z,98942.97
2022-08-09T01:52:14.595Z,98945.19
2022-08-09T01:55:00.793Z,98961.81
2022-08-09T01:57:40.064Z,98956.44
2022-08-09T02:00:34.520Z,98954.84
2022-08-09T02:03:02.965Z,98959.34
2022-08-09T02:05:38.223Z,98945.19
2022-08-09T02:08:39.435Z,98941.28
2022-08-09T02:11:17.142Z,98957.03
2022-08-09T02:13:55.488Z,98949.34
2022-08-09T02:16:59.077Z,98948.59
2022-08-09T02:19:22.838Z,98941.66
2022-08-09T02:21:55.530Z,98942.59
2022-08-09T02:24:26.751Z,98939.19
2022-08-09T02:26:58.689Z,98940.16
2022-08-09T02:29:27.408Z,98931.75
2022-08-09T02:32:01.061Z,98917.28
2022-08-09T02:34:41.409Z,98917.16
2022-08-09T02:37:24.102Z,98909.34
2022-08-09T02:40:10.328Z,98918.00
2022-08-09T02:42:39.713Z,98924.13
2022-08-09T02:45:16.649Z,98922.16
2022-08-09T02:47:59.152Z,98918.38
2022-08-09T02:50:31.072Z,98921.19
2022-08-09T02:53:01.628Z,98925.22
2022-08-09T02:55:39.424Z,98913.22
2022-08-09T02:58:36.476Z,98922.03
2022-08-09T03:01:06.407Z,98928.09
2022-08-09T03:04:12.894Z,98925.69
2022-08-09T03:06:27.566Z,98922.75
2022-08-09T03:08:55.560Z,98937.72
2022-08-09T03:12:04.649Z,98930.88
2022-08-09T03:14:11.758Z,98933.06
2022-08-09T03:16:42.046Z,98932.78
2022-08-09T03:19:16.708Z,98940.13
2022-08-09T03:21:59.968Z,98938.31
2022-08-09T03:24:31.420Z,98943.16
2022-08-09T03:27:10.856Z,98938.97
2022-08-09T03:29:43.205Z,98948.84
2022-08-09T03:32:26.227Z,98937.75
2022-08-09T03:34:54.106Z,98941.38
2022-08-09T03:37:56.589Z,98952.72
2022-08-09T03:40:13.130Z,98945.03
2022-08-09T03:42:43.149Z,98954.06
2022-08-09T03:45:11.189Z,98950.06
2022-08-09T03:47:41.815Z,98945.16
2022-08-09T03:50:12.449Z,98951.25
2022-08-09T03:52:42.502Z,98941.38
2022-08-09T03:55:10.879Z,98940.19
2022-08-09T03:57:44.706Z,98943.88
2022-08-09T04:00:25.914Z,98947.03
2022-08-09T04:02:54.501Z,98944.06
2022-08-09T04:05:27.388Z,98939.03
2022-08-09T04:07:57.157Z,98945.53
2022-08-09T04:10:28.879Z,98939.13
2022-08-09T04:13:00.830Z,98931.41
2022-08-09T04:15:42.807Z,98943.06
2022-08-09T04:18:16.639Z,98943.19
2022-08-09T04:20:45.930Z,98942.59
2022-08-09T04:23:16.837Z,98945.50
2022-08-09T04:25:43.643Z,98950.56
2022-08-09T04:28:10.211Z,98949.25
2022-08-09T04:30:39.096Z,98948.31
2022-08-09T04:33:11.482Z,98950.53
2022-08-09T04:35:40.676Z,98957.75
2022-08-09T04:38:09.227Z,98966.91
2022-08-09T04:40:54.165Z,98961.28
2022-08-09T04:43:23.083Z,98973.97
2022-08-09T04:45:53.473Z,98977.03
2022-08-09T04:48:21.366Z,98972.91
2022-08-09T04:50:50.603Z,98967.66
2022-08-09T04:53:17.463Z,98955.44
2022-08-09T04:55:57.965Z,98968.75
2022-08-09T04:58:25.823Z,98970.34
2022-08-09T05:00:54.305Z,98967.56
2022-08-09T05:03:41.227Z,98972.44
2022-08-09T05:06:09.165Z,98977.22
2022-08-09T05:08:36.242Z,98973.03
2022-08-09T05:11:03.510Z,98974.22
2022-08-09T05:13:38.683Z,98975.19
2022-08-09T05:16:10.103Z,98972.75
2022-08-09T05:18:55.384Z,98971.84
2022-08-09T05:21:24.859Z,98967.78
2022-08-09T05:24:00.941Z,98974.34
2022-08-09T05:26:36.702Z,98976.63
2022-08-09T05:29:04.511Z,98978.63
2022-08-09T05:31:45.019Z,98975.97
2022-08-09T05:34:16.970Z,98981.88
2022-08-09T05:36:47.242Z,98976.97
2022-08-09T05:39:29.482Z,98981.56
2022-08-09T05:42:02.859Z,98981.69
2022-08-09T05:44:32.809Z,98975.25
2022-08-09T05:47:00.417Z,98980.97
2022-08-09T05:50:24.461Z,98984.44
2022-08-09T05:52:14.153Z,98985.31
2022-08-09T05:54:42.022Z,98978.75
2022-08-09T05:57:12.727Z,98972.03
2022-08-09T05:59:44.082Z,98966.38
2022-08-09T06:02:11.837Z,98956.69
2022-08-09T06:04:44.696Z,98969.66
2022-08-09T06:07:21.536Z,98975.59
2022-08-09T06:09:54.737Z,98960.88
2022-08-09T06:12:29.812Z,98955.81
2022-08-09T06:15:00.701Z,98956.91
2022-08-09T06:17:27.913Z,98954.34
2022-08-09T06:20:07.971Z,98949.63
2022-08-09T06:22:34.938Z,98937.47
2022-08-09T06:25:01.858Z,98936.28
2022-08-09T06:27:42.718Z,98941.16
2022-08-09T06:30:16.251Z,98940.38
2022-08-09T06:32:58.926Z,98939.22
2022-08-09T06:35:56.548Z,98936.38
2022-08-09T06:38:18.064Z,98938.53
2022-08-09T06:40:45.990Z,98922.69
2022-08-09T06:43:13.614Z,98940.03
2022-08-09T06:46:06.626Z,98944.44
2022-08-09T06:48:31.017Z,98939.56
2022-08-09T06:50:59.900Z,98937.22
2022-08-09T06:53:27.603Z,98943.59
2022-08-09T06:56:05.898Z,98958.34
2022-08-09T07:00:47.221Z,98953.06
2022-08-09T07:01:19.340Z,98953.19
2022-08-09T07:03:53.141Z,98945.81
2022-08-09T07:06:20.870Z,98953.16
2022-08-09T07:08:49.769Z,98951.66
2022-08-09T07:11:23.822Z,98942.31
2022-08-09T07:14:05.029Z,98936.53
2022-08-09T07:16:41.316Z,98946.94
2022-08-09T07:19:23.070Z,98952.31
2022-08-09T07:21:57.767Z,98953.84
2022-08-09T07:24:32.143Z,98946.25
2022-08-09T07:27:11.062Z,98945.38
2022-08-09T07:29:57.024Z,98944.91
2022-08-09T07:32:32.318Z,98941.66
2022-08-09T07:35:02.854Z,98939.19
2022-08-09T07:37:43.811Z,98947.38
2022-08-09T07:40:18.520Z,98937.31
2022-08-09T07:42:55.798Z,98935.81
2022-08-09T07:45:39.159Z,98940.56
2022-08-09T07:48:25.698Z,98938.72
2022-08-09T07:51:09.776Z,98938.53
2022-08-09T07:54:05.022Z,98937.38
2022-08-09T07:56:28.683Z,98938.59
2022-08-09T07:58:59.513Z,98933.41
2022-08-09T08:01:34.083Z,98942.03
2022-08-09T08:04:04.596Z,98930.31
2022-08-09T08:06:37.543Z,98933.69
2022-08-09T08:09:35.585Z,98943.59
2022-08-09T08:12:24.693Z,98944.41
2022-08-09T08:14:54.819Z,98937.34
2022-08-09T08:17:24.831Z,98939.50
2022-08-09T08:20:12.962Z,98931.00
2022-08-09T08:22:40.518Z,98933.03
2022-08-09T08:25:09.520Z,98932.94
2022-08-09T08:27:41.166Z,98936.28
2022-08-09T08:30:11.821Z,98935.22
2022-08-09T08:32:41.481Z,98930.75
2022-08-09T08:35:22.532Z,98931.13
2022-08-09T08:38:02.009Z,98923.53
2022-08-09T08:40:35.910Z,98932.97
2022-08-09T08:43:08.811Z,98922.72
2022-08-09T08:46:10.279Z,98926.31
2022-08-09T08:48:51.181Z,98930.25
2022-08-09T08:51:19.031Z,98930.22
2022-08-09T08:54:02.609Z,98919.75
2022-08-09T08:56:34.163Z,98925.53
2022-08-09T08:59:07.804Z,98923.19
2022-08-09T09:01:53.455Z,98919.16
2022-08-09T09:04:29.737Z,98923.53
2022-08-09T09:07:08.367Z,98928.19
2022-08-09T09:09:58.300Z,98923.88
2022-08-09T09:12:29.055Z,98932.88
2022-08-09T09:15:00.035Z,98922.16
2022-08-09T09:17:48.413Z,98926.06
2022-08-09T09:20:15.430Z,98920.63
2022-08-09T09:23:01.729Z,98918.09
2022-08-09T09:26:01.536Z,98922.53
2022-08-09T09:28:21.374Z,98924.25
2022-08-09T09:31:17.527Z,98928.34
2022-08-09T09:34:18.165Z,98927.97
2022-08-09T09:36:51.113Z,98930.81
2022-08-09T09:39:23.290Z,98928.31
2022-08-09T09:41:50.952Z,98923.75
2022-08-09T09:44:31.729Z,98924.69
2022-08-09T09:47:09.340Z,98928.31
2022-08-09T09:50:07.229Z,98932.56
2022-08-09T09:52:36.675Z,98945.66
2022-08-09T09:55:27.713Z,98951.91
2022-08-09T09:58:16.647Z,98946.78
2022-08-09T10:00:55.714Z,98942.69
2022-08-09T10:03:57.713Z,98938.97
2022-08-09T10:06:42.932Z,98941.41
2022-08-09T10:09:22.724Z,98933.31
2022-08-09T10:12:12.934Z,98923.72
2022-08-09T10:14:50.035Z,98935.31
2022-08-09T10:17:40.203Z,98928.56
2022-08-09T10:20:27.543Z,98917.06
2022-08-09T10:23:14.109Z,98921.94
2022-08-09T10:26:06.836Z,98919.22
2022-08-09T10:28:33.868Z,98913.38
2022-08-09T10:34:18.847Z,98909.00
2022-08-09T10:36:35.662Z,98910.69
2022-08-09T10:39:02.471Z,98903.38
2022-08-09T10:41:29.090Z,98897.19
2022-08-09T10:43:59.512Z,98904.81
2022-08-09T10:46:31.250Z,98907.47
2022-08-09T10:49:13.369Z,98904.44
2022-08-09T10:52:08.489Z,98913.66
2022-08-09T10:54:35.285Z,98909.63
2022-08-09T10:57:16.690Z,98914.78
2022-08-09T10:59:58.099Z,98914.66
2022-08-09T11:03:13.390Z,98906.88
2022-08-09T11:05:31.137Z,98907.28
2022-08-09T11:08:47.335Z,98904.31
2022-08-09T11:11:18.909Z,98900.53
2022-08-09T11:13:53.684Z,98894.47
2022-08-09T11:16:38.526Z,98893.94
2022-08-09T11:19:09.570Z,98895.72
2022-08-09T11:21:57.322Z,98895.03
2022-08-09T11:25:09.856Z,98888.66
2022-08-09T11:28:02.735Z,98896.22
2022-08-09T11:30:32.677Z,98905.59
2022-08-09T11:33:01.388Z,98905.75
2022-08-09T11:35:49.288Z,98908.66
2022-08-09T11:38:34.761Z,98913.22
2022-08-09T11:41:37.651Z,98905.75
2022-08-09T11:44:05.808Z,98906.38
2022-08-09T11:46:52.863Z,98909.19
2022-08-09T11:49:28.117Z,98906.31
2022-08-09T11:53:02.355Z,98908.06
2022-08-09T11:55:34.898Z,98919.34
2022-08-09T11:58:18.418Z,98911.63
2022-08-09T12:00:52.746Z,98909.63
2022-08-09T12:03:55.833Z,98889.94
2022-08-09T12:06:13.100Z,98904.16
2022-08-09T12:08:47.790Z,98906.13
2022-08-09T12:11:17.132Z,98905.78
2022-08-09T12:14:11.103Z,98896.41
2022-08-09T12:16:40.281Z,98896.97
2022-08-09T12:19:09.821Z,98887.66
2022-08-09T12:21:48.384Z,98883.84
2022-08-09T12:24:24.069Z,98885.53
2022-08-09T12:29:14.404Z,98871.19
2022-08-09T12:29:44.586Z,98871.81
2022-08-09T12:32:26.047Z,98869.47
2022-08-09T12:34:59.588Z,98867.78
2022-08-09T12:37:50.164Z,98867.63
2022-08-09T12:40:20.513Z,98866.53
2022-08-09T12:42:50.214Z,98873.31
2022-08-09T12:45:33.671Z,98863.16
2022-08-09T12:48:20.527Z,98863.16
2022-08-09T12:50:57.021Z,98860.84
2022-08-09T12:53:37.008Z,98872.78
2022-08-09T12:56:43.964Z,98872.44
2022-08-09T12:59:14.028Z,98873.75
2022-08-09T13:01:49.109Z,98873.78
2022-08-09T13:04:27.545Z,98878.84
2022-08-09T13:07:11.927Z,98872.16
2022-08-09T13:09:40.782Z,98875.97
2022-08-09T13:12:09.877Z,98859.25
2022-08-09T13:14:44.316Z,98859.56
2022-08-09T13:17:44.488Z,98860.94
2022-08-09T13:20:18.710Z,98860.03
2022-08-09T13:23:05.323Z,98858.09
2022-08-09T13:25:54.628Z,98865.56
2022-08-09T13:28:33.789Z,98843.41
2022-08-09T13:32:14.249Z,98861.22
2022-08-09T13:33:56.843Z,98865.28
2022-08-09T13:36:41.667Z,98867.81
2022-08-09T13:41:19.250Z,98860.94
2022-08-09T13:42:13.891Z,98856.88
2022-08-09T13:44:46.221Z,98868.94
2022-08-09T13:47:33.626Z,98858.91
2022-08-09T13:50:12.564Z,98863.97
2022-08-09T13:52:47.661Z,98850.06
2022-08-09T13:55:15.420Z,98868.31
2022-08-09T13:57:55.904Z,98865.44
2022-08-09T14:00:28.756Z,98861.91
2022-08-09T14:03:03.222Z,98873.75
2022-08-09T14:05:58.390Z,98862.88
2022-08-09T14:08:28.405Z,98873.50
2022-08-09T14:10:56.082Z,98872.78
2022-08-09T14:14:15.174Z,98863.78
2022-08-09T14:16:14.707Z,98851.22
2022-08-09T14:18:45.937Z,98858.44
2022-08-09T14:21:22.680Z,98858.59
2022-08-09T14:23:56.569Z,98868.41
2022-08-09T14:26:32.165Z,98860.63
2022-08-09T14:29:01.340Z,98863.94
2022-08-09T14:31:49.791Z,98865.91
2022-08-09T14:34:17.356Z,98855.22
2022-08-09T14:36:44.175Z,98864.78
2022-08-09T14:39:11.443Z,98859.19
2022-08-09T14:41:41.638Z,98848.53
2022-08-09T14:44:11.109Z,98860.28
2022-08-09T14:47:03.269Z,98857.09
2022-08-09T14:49:26.333Z,98855.25
2022-08-09T14:51:58.225Z,98852.97
2022-08-09T14:54:27.586Z,98858.22
2022-08-09T14:56:58.962Z,98855.94
2022-08-09T14:59:28.414Z,98856.19
2022-08-09T15:01:55.950Z,98857.75
2022-08-09T15:04:23.581Z,98844.19
2022-08-09T15:06:51.317Z,98847.59
2022-08-09T15:10:03.336Z,98850.13
2022-08-09T15:12:07.799Z,98842.16
2022-08-09T15:14:34.583Z,98843.94
2022-08-09T15:17:07.695Z,98832.56
2022-08-09T15:19:36.515Z,98847.84
2022-08-09T15:22:03.628Z,98838.97
2022-08-09T15:24:30.442Z,98833.88
2022-08-09T15:26:57.687Z,98835.22
2022-08-09T15:30:57.008Z,98837.66
2022-08-09T15:32:29.389Z,98826.28
2022-08-09T15:34:59.886Z,98831.53
2022-08-09T15:37:36.889Z,98827.72
2022-08-09T15:40:04.573Z,98842.16
2022-08-09T15:42:39.930Z,98836.09
2022-08-09T15:45:10.497Z,98837.44
2022-08-09T15:47:51.932Z,98835.31
2022-08-09T15:50:28.781Z,98832.19
2022-08-09T15:53:06.168Z,98835.03
2022-08-09T15:55:53.988Z,98835.22
2022-08-09T15:58:26.696Z,98839.34
2022-08-09T16:00:53.705Z,98836.75
2022-08-09T16:03:29.459Z,98826.38
2022-08-09T16:06:06.433Z,98838.66
2022-08-09T16:08:33.620Z,98837.53
2022-08-09T16:11:02.131Z,98832.94
2022-08-09T16:14:04.238Z,98833.09
2022-08-09T16:16:18.663Z,98835.38
2022-08-09T16:18:46.045Z,98841.81
2022-08-09T16:21:17.186Z,98829.91
2022-08-09T16:23:55.506Z,98836.16
2022-08-09T16:26:34.408Z,98831.53
2022-08-09T16:29:15.728Z,98847.16
2022-08-09T16:32:20.235Z,98842.44
2022-08-09T16:34:54.520Z,98842.66
2022-08-09T16:37:54.889Z,98835.34
2022-08-09T16:40:12.641Z,98846.22
2022-08-09T16:42:44.933Z,98843.25
2022-08-09T16:45:14.011Z,98821.28
2022-08-09T16:48:39.215Z,98851.13
2022-08-09T16:50:33.750Z,98856.19
2022-08-09T16:53:02.423Z,98852.81
2022-08-09T16:55:44.160Z,98857.59
2022-08-09T16:58:17.292Z,98864.75
2022-08-09T17:00:46.508Z,98853.22
2022-08-09T17:03:21.471Z,98856.13
2022-08-09T17:06:06.739Z,98863.75
2022-08-09T17:08:44.819Z,98851.19
2022-08-09T17:11:24.417Z,98849.00
2022-08-09T17:14:00.919Z,98856.97
2022-08-09T17:16:28.626Z,98836.94
2022-08-09T17:18:55.344Z,98855.44
2022-08-09T17:21:21.933Z,98855.13
2022-08-09T17:24:27.094Z,98857.75
2022-08-09T17:26:38.314Z,98860.13
2022-08-09T17:29:05.318Z,98855.91
2022-08-09T17:31:44.636Z,98840.31
2022-08-09T17:34:59.655Z,98858.63
2022-08-09T17:37:02.274Z,98858.69
2022-08-09T17:39:48.298Z,98869.41
2022-08-09T17:42:40.994Z,98862.81
2022-08-09T17:45:06.567Z,98880.84
2022-08-09T17:47:49.268Z,98882.38
2022-08-09T17:50:35.950Z,98880.50
2022-08-09T17:53:04.837Z,98888.38
2022-08-09T17:55:48.826Z,98888.03
2022-08-09T17:58:19.001Z,98887.53
2022-08-09T18:00:47.988Z,98887.53
2022-08-09T18:03:15.208Z,98885.50
2022-08-09T18:05:44.991Z,98883.63
2022-08-09T18:08:19.442Z,98895.69
2022-08-09T18:11:01.801Z,98908.94
2022-08-09T18:13:38.746Z,98911.28
2022-08-09T18:16:10.707Z,98911.97
2022-08-09T18:18:43.306Z,98909.78
2022-08-09T18:21:23.486Z,98903.84
2022-08-09T18:24:10.481Z,98916.03
2022-08-09T18:26:46.881Z,98919.94
2022-08-09T18:30:42.421Z,98922.50
2022-08-09T18:32:05.360Z,98926.22
2022-08-09T18:34:35.249Z,98928.88
2022-08-09T18:37:10.381Z,98933.47
2022-08-09T18:39:53.013Z,98941.06
2022-08-09T18:42:19.873Z,98942.13
2022-08-09T18:44:48.030Z,98941.06
2022-08-09T18:47:18.494Z,98941.06
2022-08-09T18:49:47.352Z,98948.03
2022-08-09T18:52:18.855Z,98957.00
2022-08-09T18:54:52.482Z,98964.97
2022-08-09T18:57:22.159Z,98973.91
2022-08-09T18:59:56.485Z,98974.44
2022-08-09T19:02:30.499Z,98985.94
2022-08-09T19:05:04.135Z,98995.22
2022-08-09T19:07:41.931Z,98997.53
2022-08-09T19:10:26.493Z,99008.09
2022-08-09T19:12:55.519Z,99004.81
2022-08-09T19:15:28.841Z,99012.88
2022-08-09T19:17:58.231Z,99008.78
2022-08-09T19:20:26.346Z,99010.69
2022-08-09T19:23:01.152Z,99009.31
2022-08-09T19:25:41.963Z,99021.84
2022-08-09T19:28:15.773Z,99027.38
2022-08-09T19:30:44.443Z,99026.56
2022-08-09T19:33:19.436Z,99032.59
2022-08-09T19:35:56.931Z,99032.81
2022-08-09T19:38:25.031Z,99034.75
2022-08-09T19:40:51.737Z,99020.28
2022-08-09T19:43:57.948Z,99036.63
2022-08-09T19:46:08.542Z,99045.34
2022-08-09T19:49:00.550Z,99044.47
2022-08-09T19:51:30.990Z,99048.31
2022-08-09T19:54:01.526Z,99037.22
2022-08-09T19:56:29.495Z,99045.47
2022-08-09T19:59:18.253Z,99040.84
2022-08-09T20:02:03.228Z,99051.16
2022-08-09T20:04:37.430Z,99056.97
2022-08-09T20:07:12.428Z,99046.72
2022-08-09T20:09:47.762Z,99033.09
2022-08-09T20:12:27.066Z,99051.88
2022-08-09T20:14:56.884Z,99045.22
2022-08-09T20:17:23.468Z,99053.88
2022-08-09T20:19:54.606Z,99066.81
2022-08-09T20:22:21.587Z,99047.38
2022-08-09T20:24:58.637Z,99082.22
2022-08-09T20:27:29.122Z,99055.66
2022-08-09T20:29:57.265Z,99075.69
2022-08-09T20:32:30.153Z,99079.78
2022-08-09T20:35:01.684Z,99086.63
2022-08-09T20:38:19.490Z,99084.06
2022-08-09T20:40:24.808Z,99079.91
2022-08-09T20:43:17.995Z,99075.75
2022-08-09T20:45:59.345Z,99081.16
2022-08-09T20:48:32.107Z,99085.59
2022-08-09T20:51:00.162Z,99083.00
2022-08-09T20:53:37.567Z,99087.81
2022-08-09T20:56:20.983Z,99079.19
2022-08-09T20:58:54.192Z,99082.31
2022-08-09T21:01:33.556Z,99077.47
2022-08-09T21:05:53.039Z,99084.91
2022-08-09T21:06:57.711Z,99075.22
2022-08-09T21:09:32.895Z,99087.72
2022-08-09T21:14:48.427Z,99079.59
2022-08-09T21:18:23.813Z,99089.13
2022-08-09T21:20:18.967Z,99092.50
2022-08-09T21:22:52.746Z,99107.81
2022-08-09T21:25:44.177Z,99103.84
2022-08-09T21:28:34.089Z,99105.50
2022-08-09T21:31:16.704Z,99107.19
2022-08-09T21:33:52.080Z,99101.63
2022-08-09T21:36:23.107Z,99111.75
2022-08-09T21:38:57.705Z,99105.53
2022-08-09T21:42:03.547Z,99116.13
2022-08-09T21:44:15.495Z,99108.47
2022-08-09T21:47:01.767Z,99110.75
2022-08-09T21:49:28.483Z,99103.47
2022-08-09T21:51:55.076Z,99105.75
2022-08-09T21:54:21.689Z,99104.31
2022-08-09T21:56:54.438Z,99102.63
2022-08-09T21:59:23.492Z,99105.47
2022-08-09T22:01:59.314Z,99102.75
2022-08-09T22:04:54.975Z,99090.19
2022-08-09T22:07:14.434Z,99099.94
2022-08-09T22:10:00.739Z,99107.00
2022-08-09T22:12:35.086Z,99103.03
2022-08-09T22:15:06.938Z,99106.91
2022-08-09T22:17:46.583Z,99106.88
2022-08-09T22:20:16.994Z,99094.25
2022-08-09T22:22:49.170Z,99099.19
2022-08-09T22:26:08.493Z,99085.94
2022-08-09T22:28:06.605Z,99082.19
2022-08-09T22:30:34.076Z,99105.31
2022-08-09T22:33:00.684Z,99094.22
2022-08-09T22:36:00.763Z,99083.38
2022-08-09T22:38:16.513Z,99086.94
2022-08-09T22:40:49.324Z,99088.13
2022-08-09T22:44:01.314Z,99058.75
2022-08-09T22:48:17.098Z,99063.66
2022-08-09T22:49:01.826Z,99097.63
2022-08-09T22:51:38.102Z,99099.88
2022-08-09T22:54:08.005Z,99089.94
2022-08-09T22:56:37.608Z,99099.16
2022-08-09T22:59:58.442Z,99091.19
2022-08-09T23:01:54.679Z,99091.69
2022-08-09T23:04:21.399Z,99084.59
2022-08-09T23:07:11.267Z,99089.09
2022-08-09T23:09:41.107Z,99097.06
2022-08-09T23:12:08.310Z,99094.66
2022-08-09T23:14:41.877Z,99095.09
2022-08-09T23:17:09.591Z,99096.09
2022-08-09T23:20:00.604Z,99081.91
2022-08-09T23:22:23.010Z,99087.69
2022-08-09T23:24:49.823Z,99096.28
2022-08-09T23:27:16.426Z,99101.22
2022-08-09T23:29:43.296Z,99059.13
2022-08-09T23:32:09.998Z,99078.63
2022-08-09T23:34:36.812Z,99086.97
2022-08-09T23:37:05.002Z,99052.78
2022-08-09T23:39:32.261Z,99088.22
2022-08-09T23:41:59.120Z,99089.31
2022-08-09T23:44:25.738Z,99081.41
2022-08-09T23:46:52.854Z,99016.72
2022-08-09T23:49:24.733Z,99080.56
2022-08-09T23:51:52.580Z,99083.88
2022-08-09T23:54:19.835Z,99082.03
2022-08-09T23:56:54.731Z,99088.53
2022-08-09T23:59:23.870Z,99086.09
